sensor_id;sensor_type;location;lat;lon;timestamp;P1;durP1;ratioP1;P2;durP2;ratioP2
52386;SDS011;38317;53.084;6.960;2022-07-01T00:02:10;1.67;;;0.30;;
52386;SDS011;38317;53.084;6.960;2022-07-01T00:04:35;0.57;;;0.20;;
52386;SDS011;38317;53.084;6.960;2022-07-01T00:07:01;1.80;;;0.45;;
52386;SDS011;38317;53.084;6.960;2022-07-01T00:09:27;1.45;;;0.40;;
52386;SDS011;38317;53.084;6.960;2022-07-01T00:11:53;1.58;;;0.55;;
52386;SDS011;38317;53.084;6.960;2022-07-01T00:14:19;2.85;;;0.60;;
52386;SDS011;38317;53.084;6.960;2022-07-01T00:16:48;1.65;;;0.32;;
52386;SDS011;38317;53.084;6.960;2022-07-01T00:19:15;1.67;;;0.40;;
52386;SDS011;38317;53.084;6.960;2022-07-01T00:21:41;2.20;;;0.55;;
52386;SDS011;38317;53.084;6.960;2022-07-01T00:24:07;2.58;;;0.60;;
52386;SDS011;38317;53.084;6.960;2022-07-01T00:26:33;3.20;;;1.15;;
52386;SDS011;38317;53.084;6.960;2022-07-01T00:28:58;3.50;;;0.40;;
52386;SDS011;38317;53.084;6.960;2022-07-01T00:31:24;1.13;;;0.30;;
52386;SDS011;38317;53.084;6.960;2022-07-01T00:33:50;2.95;;;0.55;;
52386;SDS011;38317;53.084;6.960;2022-07-01T00:36:16;2.92;;;0.40;;
52386;SDS011;38317;53.084;6.960;2022-07-01T00:38:41;2.58;;;0.50;;
52386;SDS011;38317;53.084;6.960;2022-07-01T00:41:07;2.42;;;0.40;;
52386;SDS011;38317;53.084;6.960;2022-07-01T00:43:36;1.13;;;0.38;;
52386;SDS011;38317;53.084;6.960;2022-07-01T00:46:03;1.38;;;0.35;;
52386;SDS011;38317;53.084;6.960;2022-07-01T00:48:29;1.25;;;0.40;;
52386;SDS011;38317;53.084;6.960;2022-07-01T00:50:57;1.88;;;0.50;;
52386;SDS011;38317;53.084;6.960;2022-07-01T00:53:23;1.13;;;0.40;;
52386;SDS011;38317;53.084;6.960;2022-07-01T00:55:49;2.53;;;0.30;;
52386;SDS011;38317;53.084;6.960;2022-07-01T00:58:15;1.17;;;0.43;;
52386;SDS011;38317;53.084;6.960;2022-07-01T01:00:41;0.70;;;0.30;;
52386;SDS011;38317;53.084;6.960;2022-07-01T01:03:07;1.88;;;0.40;;
52386;SDS011;38317;53.084;6.960;2022-07-01T01:05:36;1.45;;;0.70;;
52386;SDS011;38317;53.084;6.960;2022-07-01T01:08:06;1.65;;;0.40;;
52386;SDS011;38317;53.084;6.960;2022-07-01T01:10:36;0.95;;;0.30;;
52386;SDS011;38317;53.084;6.960;2022-07-01T01:13:02;0.85;;;0.20;;
52386;SDS011;38317;53.084;6.960;2022-07-01T01:15:29;2.05;;;0.47;;
52386;SDS011;38317;53.084;6.960;2022-07-01T01:17:56;1.38;;;0.30;;
52386;SDS011;38317;53.084;6.960;2022-07-01T01:20:22;2.55;;;0.57;;
52386;SDS011;38317;53.084;6.960;2022-07-01T01:22:48;0.98;;;0.32;;
52386;SDS011;38317;53.084;6.960;2022-07-01T01:25:14;1.70;;;0.38;;
52386;SDS011;38317;53.084;6.960;2022-07-01T01:27:40;1.42;;;0.30;;
52386;SDS011;38317;53.084;6.960;2022-07-01T01:30:06;1.75;;;0.70;;
52386;SDS011;38317;53.084;6.960;2022-07-01T01:32:34;1.10;;;0.30;;
52386;SDS011;38317;53.084;6.960;2022-07-01T01:35:00;0.85;;;0.30;;
52386;SDS011;38317;53.084;6.960;2022-07-01T01:37:26;1.83;;;0.30;;
52386;SDS011;38317;53.084;6.960;2022-07-01T01:39:52;2.22;;;0.30;;
52386;SDS011;38317;53.084;6.960;2022-07-01T01:42:19;0.70;;;0.30;;
52386;SDS011;38317;53.084;6.960;2022-07-01T01:44:45;0.80;;;0.20;;
52386;SDS011;38317;53.084;6.960;2022-07-01T01:47:11;0.28;;;0.15;;
52386;SDS011;38317;53.084;6.960;2022-07-01T01:49:36;0.70;;;0.20;;
52386;SDS011;38317;53.084;6.960;2022-07-01T01:52:02;0.20;;;0.10;;
52386;SDS011;38317;53.084;6.960;2022-07-01T01:54:28;0.20;;;0.10;;
52386;SDS011;38317;53.084;6.960;2022-07-01T01:56:54;0.20;;;0.17;;
52386;SDS011;38317;53.084;6.960;2022-07-01T01:59:20;0.65;;;0.28;;
52386;SDS011;38317;53.084;6.960;2022-07-01T02:01:46;0.85;;;0.10;;
52386;SDS011;38317;53.084;6.960;2022-07-01T02:04:12;0.20;;;0.10;;
52386;SDS011;38317;53.084;6.960;2022-07-01T02:06:38;0.55;;;0.10;;
52386;SDS011;38317;53.084;6.960;2022-07-01T02:09:07;0.22;;;0.10;;
52386;SDS011;38317;53.084;6.960;2022-07-01T02:11:36;0.10;;;0.05;;
52386;SDS011;38317;53.084;6.960;2022-07-01T02:14:02;0.40;;;0.20;;
52386;SDS011;38317;53.084;6.960;2022-07-01T02:16:28;0.65;;;0.20;;
52386;SDS011;38317;53.084;6.960;2022-07-01T02:18:54;0.50;;;0.10;;
52386;SDS011;38317;53.084;6.960;2022-07-01T02:21:19;0.30;;;0.20;;
52386;SDS011;38317;53.084;6.960;2022-07-01T02:23:45;0.95;;;0.30;;
52386;SDS011;38317;53.084;6.960;2022-07-01T02:26:11;1.15;;;0.30;;
52386;SDS011;38317;53.084;6.960;2022-07-01T02:28:37;0.82;;;0.20;;
52386;SDS011;38317;53.084;6.960;2022-07-01T02:31:03;0.35;;;0.20;;
52386;SDS011;38317;53.084;6.960;2022-07-01T02:33:29;0.35;;;0.20;;
52386;SDS011;38317;53.084;6.960;2022-07-01T02:35:55;0.45;;;0.20;;
52386;SDS011;38317;53.084;6.960;2022-07-01T02:38:21;1.05;;;0.20;;
52386;SDS011;38317;53.084;6.960;2022-07-01T02:40:47;0.30;;;0.30;;
52386;SDS011;38317;53.084;6.960;2022-07-01T02:43:12;1.60;;;0.40;;
52386;SDS011;38317;53.084;6.960;2022-07-01T02:45:38;1.13;;;0.20;;
52386;SDS011;38317;53.084;6.960;2022-07-01T02:48:05;1.65;;;0.32;;
52386;SDS011;38317;53.084;6.960;2022-07-01T02:50:31;0.82;;;0.30;;
52386;SDS011;38317;53.084;6.960;2022-07-01T02:52:57;0.30;;;0.17;;
52386;SDS011;38317;53.084;6.960;2022-07-01T02:55:22;1.27;;;0.28;;
52386;SDS011;38317;53.084;6.960;2022-07-01T02:57:48;0.68;;;0.30;;
52386;SDS011;38317;53.084;6.960;2022-07-01T03:00:16;0.60;;;0.30;;
52386;SDS011;38317;53.084;6.960;2022-07-01T03:02:43;1.15;;;0.22;;
52386;SDS011;38317;53.084;6.960;2022-07-01T03:05:09;0.22;;;0.20;;
52386;SDS011;38317;53.084;6.960;2022-07-01T03:07:38;0.47;;;0.35;;
52386;SDS011;38317;53.084;6.960;2022-07-01T03:10:04;1.77;;;0.60;;
52386;SDS011;38317;53.084;6.960;2022-07-01T03:12:31;0.95;;;0.40;;
52386;SDS011;38317;53.084;6.960;2022-07-01T03:15:01;0.50;;;0.30;;
52386;SDS011;38317;53.084;6.960;2022-07-01T03:17:39;1.20;;;0.60;;
52386;SDS011;38317;53.084;6.960;2022-07-01T03:20:07;0.95;;;0.43;;
52386;SDS011;38317;53.084;6.960;2022-07-01T03:22:35;0.57;;;0.38;;
52386;SDS011;38317;53.084;6.960;2022-07-01T03:25:02;0.70;;;0.30;;
52386;SDS011;38317;53.084;6.960;2022-07-01T03:27:28;1.08;;;0.30;;
52386;SDS011;38317;53.084;6.960;2022-07-01T03:29:55;1.30;;;0.55;;
52386;SDS011;38317;53.084;6.960;2022-07-01T03:32:21;0.75;;;0.47;;
52386;SDS011;38317;53.084;6.960;2022-07-01T03:34:47;0.93;;;0.40;;
52386;SDS011;38317;53.084;6.960;2022-07-01T03:37:15;1.02;;;0.60;;
52386;SDS011;38317;53.084;6.960;2022-07-01T03:39:42;1.55;;;0.70;;
52386;SDS011;38317;53.084;6.960;2022-07-01T03:42:09;1.25;;;0.55;;
52386;SDS011;38317;53.084;6.960;2022-07-01T03:44:35;0.43;;;0.30;;
52386;SDS011;38317;53.084;6.960;2022-07-01T03:47:01;0.70;;;0.40;;
52386;SDS011;38317;53.084;6.960;2022-07-01T03:49:28;0.60;;;0.43;;
52386;SDS011;38317;53.084;6.960;2022-07-01T03:51:53;1.58;;;0.43;;
52386;SDS011;38317;53.084;6.960;2022-07-01T03:54:19;0.70;;;0.60;;
52386;SDS011;38317;53.084;6.960;2022-07-01T03:57:07;1.88;;;0.60;;
52386;SDS011;38317;53.084;6.960;2022-07-01T03:59:37;0.95;;;0.50;;
52386;SDS011;38317;53.084;6.960;2022-07-01T04:02:04;0.73;;;0.50;;
52386;SDS011;38317;53.084;6.960;2022-07-01T04:04:31;2.10;;;0.80;;
52386;SDS011;38317;53.084;6.960;2022-07-01T04:06:58;0.63;;;0.50;;
52386;SDS011;38317;53.084;6.960;2022-07-01T04:09:25;0.93;;;0.60;;
52386;SDS011;38317;53.084;6.960;2022-07-01T04:11:52;1.75;;;0.70;;
52386;SDS011;38317;53.084;6.960;2022-07-01T04:14:19;1.10;;;0.60;;
52386;SDS011;38317;53.084;6.960;2022-07-01T04:16:45;0.95;;;0.50;;
52386;SDS011;38317;53.084;6.960;2022-07-01T04:19:11;0.60;;;0.40;;
52386;SDS011;38317;53.084;6.960;2022-07-01T04:21:38;1.08;;;0.55;;
52386;SDS011;38317;53.084;6.960;2022-07-01T04:24:22;1.00;;;0.68;;
52386;SDS011;38317;53.084;6.960;2022-07-01T04:26:49;1.10;;;0.60;;
52386;SDS011;38317;53.084;6.960;2022-07-01T04:29:16;1.70;;;0.90;;
52386;SDS011;38317;53.084;6.960;2022-07-01T04:31:42;2.30;;;1.10;;
52386;SDS011;38317;53.084;6.960;2022-07-01T04:34:08;2.05;;;0.95;;
52386;SDS011;38317;53.084;6.960;2022-07-01T04:36:34;1.20;;;0.93;;
52386;SDS011;38317;53.084;6.960;2022-07-01T04:39:01;2.15;;;1.17;;
52386;SDS011;38317;53.084;6.960;2022-07-01T04:41:28;2.40;;;1.15;;
52386;SDS011;38317;53.084;6.960;2022-07-01T04:44:12;2.88;;;1.65;;
52386;SDS011;38317;53.084;6.960;2022-07-01T04:46:37;4.25;;;2.05;;
52386;SDS011;38317;53.084;6.960;2022-07-01T04:49:03;2.75;;;1.77;;
52386;SDS011;38317;53.084;6.960;2022-07-01T04:51:29;3.40;;;1.83;;
52386;SDS011;38317;53.084;6.960;2022-07-01T04:53:56;3.83;;;2.00;;
52386;SDS011;38317;53.084;6.960;2022-07-01T04:56:21;4.72;;;2.60;;
52386;SDS011;38317;53.084;6.960;2022-07-01T04:58:47;3.95;;;2.40;;
52386;SDS011;38317;53.084;6.960;2022-07-01T05:01:13;5.47;;;3.13;;
52386;SDS011;38317;53.084;6.960;2022-07-01T05:03:39;4.13;;;2.58;;
52386;SDS011;38317;53.084;6.960;2022-07-01T05:06:05;5.93;;;3.00;;
52386;SDS011;38317;53.084;6.960;2022-07-01T05:08:31;6.47;;;4.18;;
52386;SDS011;38317;53.084;6.960;2022-07-01T05:10:57;6.88;;;4.45;;
52386;SDS011;38317;53.084;6.960;2022-07-01T05:13:22;7.57;;;4.88;;
52386;SDS011;38317;53.084;6.960;2022-07-01T05:15:48;6.45;;;3.95;;
52386;SDS011;38317;53.084;6.960;2022-07-01T05:18:14;9.15;;;5.82;;
52386;SDS011;38317;53.084;6.960;2022-07-01T05:20:58;10.65;;;6.78;;
52386;SDS011;38317;53.084;6.960;2022-07-01T05:23:43;8.10;;;5.38;;
52386;SDS011;38317;53.084;6.960;2022-07-01T05:26:10;10.93;;;6.97;;
52386;SDS011;38317;53.084;6.960;2022-07-01T05:28:43;11.57;;;7.82;;
52386;SDS011;38317;53.084;6.960;2022-07-01T05:31:09;10.75;;;6.88;;
52386;SDS011;38317;53.084;6.960;2022-07-01T05:33:35;10.00;;;6.30;;
52386;SDS011;38317;53.084;6.960;2022-07-01T05:36:01;10.73;;;6.80;;
52386;SDS011;38317;53.084;6.960;2022-07-01T05:38:27;11.23;;;6.78;;
52386;SDS011;38317;53.084;6.960;2022-07-01T05:40:53;9.70;;;6.07;;
52386;SDS011;38317;53.084;6.960;2022-07-01T05:43:19;11.30;;;7.53;;
52386;SDS011;38317;53.084;6.960;2022-07-01T05:45:45;11.48;;;7.57;;
52386;SDS011;38317;53.084;6.960;2022-07-01T05:48:11;10.75;;;7.55;;
52386;SDS011;38317;53.084;6.960;2022-07-01T05:50:37;10.80;;;7.28;;
52386;SDS011;38317;53.084;6.960;2022-07-01T05:53:04;10.43;;;6.40;;
52386;SDS011;38317;53.084;6.960;2022-07-01T05:55:30;11.35;;;7.35;;
52386;SDS011;38317;53.084;6.960;2022-07-01T05:57:56;10.98;;;7.32;;
52386;SDS011;38317;53.084;6.960;2022-07-01T06:00:22;12.88;;;8.95;;
52386;SDS011;38317;53.084;6.960;2022-07-01T06:02:48;13.32;;;8.80;;
52386;SDS011;38317;53.084;6.960;2022-07-01T06:05:14;13.27;;;9.30;;
52386;SDS011;38317;53.084;6.960;2022-07-01T06:07:40;13.20;;;9.13;;
52386;SDS011;38317;53.084;6.960;2022-07-01T06:10:06;13.68;;;8.57;;
52386;SDS011;38317;53.084;6.960;2022-07-01T06:12:35;13.90;;;8.70;;
52386;SDS011;38317;53.084;6.960;2022-07-01T06:15:01;14.55;;;9.00;;
52386;SDS011;38317;53.084;6.960;2022-07-01T06:17:27;12.38;;;8.32;;
52386;SDS011;38317;53.084;6.960;2022-07-01T06:19:54;11.18;;;6.90;;
52386;SDS011;38317;53.084;6.960;2022-07-01T06:22:19;8.55;;;5.93;;
52386;SDS011;38317;53.084;6.960;2022-07-01T06:24:46;14.15;;;9.25;;
52386;SDS011;38317;53.084;6.960;2022-07-01T06:27:12;17.42;;;11.73;;
52386;SDS011;38317;53.084;6.960;2022-07-01T06:29:38;13.30;;;9.15;;
52386;SDS011;38317;53.084;6.960;2022-07-01T06:32:05;14.57;;;10.27;;
52386;SDS011;38317;53.084;6.960;2022-07-01T06:34:31;13.95;;;10.07;;
52386;SDS011;38317;53.084;6.960;2022-07-01T06:36:56;13.25;;;8.00;;
52386;SDS011;38317;53.084;6.960;2022-07-01T06:39:25;14.35;;;10.13;;
52386;SDS011;38317;53.084;6.960;2022-07-01T06:41:52;13.13;;;8.27;;
52386;SDS011;38317;53.084;6.960;2022-07-01T06:44:18;12.82;;;8.70;;
52386;SDS011;38317;53.084;6.960;2022-07-01T06:46:44;12.75;;;7.85;;
52386;SDS011;38317;53.084;6.960;2022-07-01T06:49:10;11.20;;;7.28;;
52386;SDS011;38317;53.084;6.960;2022-07-01T06:51:36;15.13;;;10.07;;
52386;SDS011;38317;53.084;6.960;2022-07-01T06:54:02;16.85;;;9.88;;
52386;SDS011;38317;53.084;6.960;2022-07-01T06:56:27;14.18;;;10.00;;
52386;SDS011;38317;53.084;6.960;2022-07-01T06:58:54;13.63;;;8.85;;
52386;SDS011;38317;53.084;6.960;2022-07-01T07:01:19;11.25;;;7.25;;
52386;SDS011;38317;53.084;6.960;2022-07-01T07:03:45;12.02;;;8.20;;
52386;SDS011;38317;53.084;6.960;2022-07-01T07:06:11;13.20;;;8.90;;
52386;SDS011;38317;53.084;6.960;2022-07-01T07:08:37;12.85;;;8.73;;
52386;SDS011;38317;53.084;6.960;2022-07-01T07:11:03;17.08;;;10.75;;
52386;SDS011;38317;53.084;6.960;2022-07-01T07:13:29;14.30;;;10.93;;
52386;SDS011;38317;53.084;6.960;2022-07-01T07:15:55;11.55;;;8.25;;
52386;SDS011;38317;53.084;6.960;2022-07-01T07:18:21;14.23;;;9.98;;
52386;SDS011;38317;53.084;6.960;2022-07-01T07:20:47;14.27;;;10.40;;
52386;SDS011;38317;53.084;6.960;2022-07-01T07:23:14;13.23;;;8.38;;
52386;SDS011;38317;53.084;6.960;2022-07-01T07:25:40;15.98;;;9.70;;
52386;SDS011;38317;53.084;6.960;2022-07-01T07:28:06;13.00;;;9.75;;
52386;SDS011;38317;53.084;6.960;2022-07-01T07:30:31;11.73;;;8.30;;
52386;SDS011;38317;53.084;6.960;2022-07-01T07:32:57;9.98;;;7.53;;
52386;SDS011;38317;53.084;6.960;2022-07-01T07:35:23;14.50;;;10.02;;
52386;SDS011;38317;53.084;6.960;2022-07-01T07:37:49;10.23;;;7.93;;
52386;SDS011;38317;53.084;6.960;2022-07-01T07:40:15;11.90;;;8.55;;
52386;SDS011;38317;53.084;6.960;2022-07-01T07:42:44;12.38;;;9.50;;
52386;SDS011;38317;53.084;6.960;2022-07-01T07:45:12;11.98;;;9.30;;
52386;SDS011;38317;53.084;6.960;2022-07-01T07:47:41;13.27;;;8.93;;
52386;SDS011;38317;53.084;6.960;2022-07-01T07:50:13;14.02;;;10.00;;
52386;SDS011;38317;53.084;6.960;2022-07-01T07:52:39;13.02;;;8.88;;
52386;SDS011;38317;53.084;6.960;2022-07-01T07:55:07;10.05;;;7.63;;
52386;SDS011;38317;53.084;6.960;2022-07-01T07:57:37;14.32;;;9.00;;
52386;SDS011;38317;53.084;6.960;2022-07-01T08:00:05;11.95;;;8.80;;
52386;SDS011;38317;53.084;6.960;2022-07-01T08:02:32;11.10;;;7.25;;
52386;SDS011;38317;53.084;6.960;2022-07-01T08:04:58;10.23;;;7.70;;
52386;SDS011;38317;53.084;6.960;2022-07-01T08:07:24;13.02;;;9.40;;
52386;SDS011;38317;53.084;6.960;2022-07-01T08:09:49;12.77;;;8.65;;
52386;SDS011;38317;53.084;6.960;2022-07-01T08:12:15;12.43;;;8.40;;
52386;SDS011;38317;53.084;6.960;2022-07-01T08:14:41;12.35;;;8.60;;
52386;SDS011;38317;53.084;6.960;2022-07-01T08:17:08;10.93;;;7.00;;
52386;SDS011;38317;53.084;6.960;2022-07-01T08:19:34;12.68;;;8.45;;
52386;SDS011;38317;53.084;6.960;2022-07-01T08:21:59;14.32;;;9.38;;
52386;SDS011;38317;53.084;6.960;2022-07-01T08:24:26;10.57;;;7.40;;
52386;SDS011;38317;53.084;6.960;2022-07-01T08:26:51;14.07;;;9.23;;
52386;SDS011;38317;53.084;6.960;2022-07-01T08:29:17;10.52;;;7.72;;
52386;SDS011;38317;53.084;6.960;2022-07-01T08:31:43;15.07;;;9.88;;
52386;SDS011;38317;53.084;6.960;2022-07-01T08:34:09;12.07;;;8.55;;
52386;SDS011;38317;53.084;6.960;2022-07-01T08:36:35;11.43;;;7.78;;
52386;SDS011;38317;53.084;6.960;2022-07-01T08:39:01;10.95;;;7.95;;
52386;SDS011;38317;53.084;6.960;2022-07-01T08:41:27;9.57;;;6.60;;
52386;SDS011;38317;53.084;6.960;2022-07-01T08:43:53;7.95;;;5.65;;
52386;SDS011;38317;53.084;6.960;2022-07-01T08:46:19;10.68;;;6.50;;
52386;SDS011;38317;53.084;6.960;2022-07-01T08:48:46;9.20;;;6.53;;
52386;SDS011;38317;53.084;6.960;2022-07-01T08:51:12;10.82;;;6.60;;
52386;SDS011;38317;53.084;6.960;2022-07-01T08:53:37;7.85;;;5.57;;
52386;SDS011;38317;53.084;6.960;2022-07-01T08:56:03;11.60;;;8.23;;
52386;SDS011;38317;53.084;6.960;2022-07-01T08:58:48;11.05;;;7.30;;
52386;SDS011;38317;53.084;6.960;2022-07-01T09:01:15;10.52;;;7.22;;
52386;SDS011;38317;53.084;6.960;2022-07-01T09:03:43;8.60;;;6.00;;
52386;SDS011;38317;53.084;6.960;2022-07-01T09:06:17;10.32;;;6.70;;
52386;SDS011;38317;53.084;6.960;2022-07-01T09:08:47;10.65;;;7.22;;
52386;SDS011;38317;53.084;6.960;2022-07-01T09:11:23;9.20;;;5.95;;
52386;SDS011;38317;53.084;6.960;2022-07-01T09:14:07;9.07;;;6.03;;
52386;SDS011;38317;53.084;6.960;2022-07-01T09:19:07;9.45;;;6.40;;
52386;SDS011;38317;53.084;6.960;2022-07-01T09:21:34;9.40;;;5.13;;
52386;SDS011;38317;53.084;6.960;2022-07-01T09:24:04;7.03;;;4.68;;
52386;SDS011;38317;53.084;6.960;2022-07-01T09:29:19;8.60;;;5.55;;
52386;SDS011;38317;53.084;6.960;2022-07-01T09:31:48;6.97;;;4.40;;
52386;SDS011;38317;53.084;6.960;2022-07-01T09:34:14;8.48;;;5.18;;
52386;SDS011;38317;53.084;6.960;2022-07-01T09:36:40;6.97;;;4.10;;
52386;SDS011;38317;53.084;6.960;2022-07-01T09:39:17;5.70;;;3.95;;
52386;SDS011;38317;53.084;6.960;2022-07-01T09:41:43;8.35;;;4.30;;
52386;SDS011;38317;53.084;6.960;2022-07-01T09:44:09;6.95;;;3.78;;
52386;SDS011;38317;53.084;6.960;2022-07-01T09:46:35;4.80;;;3.38;;
52386;SDS011;38317;53.084;6.960;2022-07-01T09:49:01;6.53;;;3.40;;
52386;SDS011;38317;53.084;6.960;2022-07-01T09:51:28;4.47;;;2.72;;
52386;SDS011;38317;53.084;6.960;2022-07-01T09:53:55;3.95;;;2.63;;
52386;SDS011;38317;53.084;6.960;2022-07-01T09:56:24;5.35;;;3.00;;
52386;SDS011;38317;53.084;6.960;2022-07-01T09:58:50;5.25;;;2.75;;
52386;SDS011;38317;53.084;6.960;2022-07-01T10:01:16;6.85;;;3.25;;
52386;SDS011;38317;53.084;6.960;2022-07-01T10:03:42;4.55;;;2.70;;
52386;SDS011;38317;53.084;6.960;2022-07-01T10:08:50;5.57;;;2.60;;
52386;SDS011;38317;53.084;6.960;2022-07-01T10:14:30;5.82;;;3.08;;
52386;SDS011;38317;53.084;6.960;2022-07-01T10:16:57;4.68;;;2.78;;
52386;SDS011;38317;53.084;6.960;2022-07-01T10:21:51;5.80;;;2.75;;
52386;SDS011;38317;53.084;6.960;2022-07-01T10:24:23;6.03;;;3.13;;
52386;SDS011;38317;53.084;6.960;2022-07-01T10:26:50;5.38;;;3.00;;
52386;SDS011;38317;53.084;6.960;2022-07-01T10:29:33;5.82;;;2.88;;
52386;SDS011;38317;53.084;6.960;2022-07-01T10:34:39;5.13;;;2.40;;
52386;SDS011;38317;53.084;6.960;2022-07-01T10:37:07;5.43;;;2.33;;
52386;SDS011;38317;53.084;6.960;2022-07-01T10:42:18;4.30;;;2.33;;
52386;SDS011;38317;53.084;6.960;2022-07-01T10:45:00;5.60;;;2.17;;
52386;SDS011;38317;53.084;6.960;2022-07-01T10:47:33;5.63;;;2.72;;
52386;SDS011;38317;53.084;6.960;2022-07-01T10:49:59;6.65;;;2.38;;
52386;SDS011;38317;53.084;6.960;2022-07-01T10:52:32;3.72;;;1.88;;
52386;SDS011;38317;53.084;6.960;2022-07-01T10:54:59;3.30;;;1.90;;
52386;SDS011;38317;53.084;6.960;2022-07-01T10:57:29;4.72;;;1.90;;
52386;SDS011;38317;53.084;6.960;2022-07-01T11:02:46;5.00;;;2.38;;
52386;SDS011;38317;53.084;6.960;2022-07-01T11:05:13;3.35;;;1.60;;
52386;SDS011;38317;53.084;6.960;2022-07-01T11:07:43;2.70;;;1.50;;
52386;SDS011;38317;53.084;6.960;2022-07-01T11:10:11;4.38;;;2.22;;
52386;SDS011;38317;53.084;6.960;2022-07-01T11:12:40;4.50;;;1.80;;
52386;SDS011;38317;53.084;6.960;2022-07-01T11:15:09;3.90;;;1.73;;
52386;SDS011;38317;53.084;6.960;2022-07-01T11:17:41;4.57;;;1.70;;
52386;SDS011;38317;53.084;6.960;2022-07-01T11:20:08;4.82;;;1.80;;
52386;SDS011;38317;53.084;6.960;2022-07-01T11:22:35;2.95;;;1.38;;
52386;SDS011;38317;53.084;6.960;2022-07-01T11:25:04;3.25;;;2.00;;
52386;SDS011;38317;53.084;6.960;2022-07-01T11:27:32;5.07;;;2.00;;
52386;SDS011;38317;53.084;6.960;2022-07-01T11:29:59;3.38;;;1.80;;
52386;SDS011;38317;53.084;6.960;2022-07-01T11:32:30;3.45;;;1.30;;
52386;SDS011;38317;53.084;6.960;2022-07-01T11:35:00;3.90;;;1.77;;
52386;SDS011;38317;53.084;6.960;2022-07-01T11:37:30;2.78;;;1.45;;
52386;SDS011;38317;53.084;6.960;2022-07-01T11:40:16;5.25;;;2.38;;
52386;SDS011;38317;53.084;6.960;2022-07-01T11:42:43;3.53;;;1.80;;
52386;SDS011;38317;53.084;6.960;2022-07-01T11:45:09;3.05;;;1.52;;
52386;SDS011;38317;53.084;6.960;2022-07-01T11:47:50;3.72;;;1.40;;
52386;SDS011;38317;53.084;6.960;2022-07-01T11:50:16;2.45;;;1.48;;
52386;SDS011;38317;53.084;6.960;2022-07-01T11:52:42;3.17;;;1.60;;
52386;SDS011;38317;53.084;6.960;2022-07-01T11:55:08;3.70;;;1.63;;
52386;SDS011;38317;53.084;6.960;2022-07-01T11:57:34;3.38;;;1.80;;
52386;SDS011;38317;53.084;6.960;2022-07-01T12:00:07;3.55;;;1.50;;
52386;SDS011;38317;53.084;6.960;2022-07-01T12:02:35;3.28;;;1.33;;
52386;SDS011;38317;53.084;6.960;2022-07-01T12:05:01;3.53;;;1.38;;
52386;SDS011;38317;53.084;6.960;2022-07-01T12:07:27;4.40;;;1.83;;
52386;SDS011;38317;53.084;6.960;2022-07-01T12:09:54;2.83;;;1.17;;
52386;SDS011;38317;53.084;6.960;2022-07-01T12:12:21;2.72;;;1.33;;
52386;SDS011;38317;53.084;6.960;2022-07-01T12:14:57;2.92;;;1.30;;
52386;SDS011;38317;53.084;6.960;2022-07-01T12:17:24;3.17;;;1.02;;
52386;SDS011;38317;53.084;6.960;2022-07-01T12:19:51;3.13;;;1.17;;
52386;SDS011;38317;53.084;6.960;2022-07-01T12:22:23;2.35;;;0.85;;
52386;SDS011;38317;53.084;6.960;2022-07-01T12:24:50;1.33;;;0.70;;
52386;SDS011;38317;53.084;6.960;2022-07-01T12:27:21;1.55;;;0.70;;
52386;SDS011;38317;53.084;6.960;2022-07-01T12:29:48;1.70;;;0.70;;
52386;SDS011;38317;53.084;6.960;2022-07-01T12:32:17;3.25;;;1.20;;
52386;SDS011;38317;53.084;6.960;2022-07-01T12:39:59;5.53;;;0.43;;
52386;SDS011;38317;53.084;6.960;2022-07-01T12:42:36;2.88;;;0.50;;
52386;SDS011;38317;53.084;6.960;2022-07-01T12:45:11;2.08;;;0.75;;
52386;SDS011;38317;53.084;6.960;2022-07-01T12:47:45;1.27;;;0.30;;
52386;SDS011;38317;53.084;6.960;2022-07-01T12:50:17;1.00;;;0.30;;
52386;SDS011;38317;53.084;6.960;2022-07-01T12:52:44;2.88;;;0.50;;
52386;SDS011;38317;53.084;6.960;2022-07-01T12:57:59;0.77;;;0.38;;
52386;SDS011;38317;53.084;6.960;2022-07-01T13:00:25;1.35;;;0.40;;
52386;SDS011;38317;53.084;6.960;2022-07-01T13:02:56;2.30;;;0.43;;
52386;SDS011;38317;53.084;6.960;2022-07-01T13:05:23;6.38;;;0.45;;
52386;SDS011;38317;53.084;6.960;2022-07-01T13:07:50;1.52;;;0.25;;
52386;SDS011;38317;53.084;6.960;2022-07-01T13:10:16;1.42;;;0.20;;
52386;SDS011;38317;53.084;6.960;2022-07-01T13:12:43;0.77;;;0.30;;
52386;SDS011;38317;53.084;6.960;2022-07-01T13:15:10;4.70;;;0.38;;
52386;SDS011;38317;53.084;6.960;2022-07-01T13:17:37;1.20;;;0.30;;
52386;SDS011;38317;53.084;6.960;2022-07-01T13:20:03;1.38;;;0.30;;
52386;SDS011;38317;53.084;6.960;2022-07-01T13:22:29;1.02;;;0.22;;
52386;SDS011;38317;53.084;6.960;2022-07-01T13:24:55;0.50;;;0.28;;
52386;SDS011;38317;53.084;6.960;2022-07-01T13:27:21;0.38;;;0.20;;
52386;SDS011;38317;53.084;6.960;2022-07-01T13:29:48;0.43;;;0.10;;
52386;SDS011;38317;53.084;6.960;2022-07-01T13:32:14;2.38;;;0.65;;
52386;SDS011;38317;53.084;6.960;2022-07-01T13:34:40;1.08;;;0.10;;
52386;SDS011;38317;53.084;6.960;2022-07-01T13:37:06;2.05;;;0.35;;
52386;SDS011;38317;53.084;6.960;2022-07-01T13:39:32;1.50;;;0.40;;
52386;SDS011;38317;53.084;6.960;2022-07-01T13:41:58;0.88;;;0.20;;
52386;SDS011;38317;53.084;6.960;2022-07-01T13:44:24;1.10;;;0.10;;
52386;SDS011;38317;53.084;6.960;2022-07-01T13:46:49;0.90;;;0.25;;
52386;SDS011;38317;53.084;6.960;2022-07-01T13:49:15;1.20;;;0.30;;
52386;SDS011;38317;53.084;6.960;2022-07-01T13:51:41;0.20;;;0.10;;
52386;SDS011;38317;53.084;6.960;2022-07-01T13:54:08;1.63;;;0.20;;
52386;SDS011;38317;53.084;6.960;2022-07-01T13:56:34;1.02;;;0.22;;
52386;SDS011;38317;53.084;6.960;2022-07-01T13:59:00;1.10;;;0.20;;
52386;SDS011;38317;53.084;6.960;2022-07-01T14:01:26;1.50;;;0.20;;
52386;SDS011;38317;53.084;6.960;2022-07-01T14:03:53;1.05;;;0.20;;
52386;SDS011;38317;53.084;6.960;2022-07-01T14:06:19;1.55;;;0.17;;
52386;SDS011;38317;53.084;6.960;2022-07-01T14:08:45;2.70;;;0.40;;
52386;SDS011;38317;53.084;6.960;2022-07-01T14:11:11;1.90;;;0.20;;
52386;SDS011;38317;53.084;6.960;2022-07-01T14:13:37;1.10;;;0.17;;
52386;SDS011;38317;53.084;6.960;2022-07-01T14:16:04;1.77;;;0.10;;
52386;SDS011;38317;53.084;6.960;2022-07-01T14:18:31;1.05;;;0.20;;
52386;SDS011;38317;53.084;6.960;2022-07-01T14:20:58;1.73;;;0.35;;
52386;SDS011;38317;53.084;6.960;2022-07-01T14:23:24;0.80;;;0.10;;
52386;SDS011;38317;53.084;6.960;2022-07-01T14:25:49;1.17;;;0.10;;
52386;SDS011;38317;53.084;6.960;2022-07-01T14:28:15;0.63;;;0.10;;
52386;SDS011;38317;53.084;6.960;2022-07-01T14:30:41;1.42;;;0.25;;
52386;SDS011;38317;53.084;6.960;2022-07-01T14:33:07;3.10;;;0.45;;
52386;SDS011;38317;53.084;6.960;2022-07-01T14:35:32;1.75;;;0.25;;
52386;SDS011;38317;53.084;6.960;2022-07-01T14:37:58;1.30;;;0.20;;
52386;SDS011;38317;53.084;6.960;2022-07-01T14:40:25;1.20;;;0.30;;
52386;SDS011;38317;53.084;6.960;2022-07-01T14:42:51;2.13;;;0.50;;
52386;SDS011;38317;53.084;6.960;2022-07-01T14:45:17;1.27;;;0.30;;
52386;SDS011;38317;53.084;6.960;2022-07-01T14:47:43;2.38;;;0.30;;
52386;SDS011;38317;53.084;6.960;2022-07-01T14:50:10;1.00;;;0.20;;
52386;SDS011;38317;53.084;6.960;2022-07-01T14:52:36;1.48;;;0.32;;
52386;SDS011;38317;53.084;6.960;2022-07-01T14:55:03;1.52;;;0.32;;
52386;SDS011;38317;53.084;6.960;2022-07-01T14:57:29;0.47;;;0.20;;
52386;SDS011;38317;53.084;6.960;2022-07-01T14:59:55;0.47;;;0.10;;
52386;SDS011;38317;53.084;6.960;2022-07-01T15:02:23;0.40;;;0.10;;
52386;SDS011;38317;53.084;6.960;2022-07-01T15:04:49;0.90;;;0.20;;
52386;SDS011;38317;53.084;6.960;2022-07-01T15:07:15;1.17;;;0.20;;
52386;SDS011;38317;53.084;6.960;2022-07-01T15:09:41;2.00;;;0.25;;
52386;SDS011;38317;53.084;6.960;2022-07-01T15:12:08;1.48;;;0.30;;
52386;SDS011;38317;53.084;6.960;2022-07-01T15:14:35;1.70;;;0.30;;